EHRD Airport Information

Runway Information
Runway 06 Length 7218 ft width 148 ft
Elevation 0 ft Threshold 656 ft Heading 57
Runway 24 Length 7218 ft Width 148 ft
Elevation 0 ft Threshold 656 ft Heading 237
Airport Frequencies
Type A/D Name SCHIPHOL Frequency 121.2 MHZ
Type APP Name APP Frequency 127.025 MHZ
Type ATIS Name ATIS Frequency 110.4 MHZ
Type GND Name GND Frequency 122.175 MHZ
Type TWR Name TWR Frequency 118.2 MHZ
Airport Navaids
Type NDB Name Rotterdam Frequency 351 KHZ
Type VOR-DME Name Rotterdam Frequency 110400 KHZ
Airport Weather Information & NOTAM
ADDS - METARS form results

(0651 UTC 22 April 2018)
 
METAR text: EHRD 220625Z AUTO 09004KT 9999 NSC 15/10 Q1012 NOSIG
Conditions at: EHRD (ROTTERDAM AIRPOR, NL) observed 0625 UTC 22 April 2018
Temperature: 15.0°C (59°F)
Dewpoint: 10.0°C (50°F) [RH = 72%]
Pressure (altimeter): 29.88 inches Hg (1012.0 mb)
Winds: from the E (90 degrees) at 5 MPH (4 knots; 2.1 m/s)
Visibility: 6 or more miles (10+ km)
Ceiling: at least 12,000 feet AGL
Clouds: sky clear below 12,000 feet AGL
Weather: no significant weather observed at this time

METAR text: EHRD 220555Z AUTO 10003KT 060V130 9999 NSC 14/09 Q1013 NOSIG
Conditions at: EHRD (ROTTERDAM AIRPOR, NL) observed 0555 UTC 22 April 2018
Temperature: 14.0°C (57°F)
Dewpoint: 9.0°C (48°F) [RH = 72%]
Pressure (altimeter): 29.91 inches Hg (1013.0 mb)
Winds: from the E (100 degrees) at 3 MPH (3 knots; 1.6 m/s)
Visibility: 6 or more miles (10+ km)
Ceiling: at least 12,000 feet AGL
Clouds: sky clear below 12,000 feet AGL
Weather: no significant weather observed at this time